Terminal Aerodrome Forecast
Issued by NWS Jacksonville, FL

Current Version | Previous Version | Text Only | Print | Product List | Glossary On
Versions: 1 2 3 4 5 6 7 8 9 10 11 12 13 14 15
730
FTUS42 KJAX 271120
TAFJAX
TAF
KJAX 271120Z 2712/2812 05007KT P6SM VCSH FEW020 SCT035 BKN200
      TEMPO 2712/2715 SHRA BKN030
     FM271500 07010KT P6SM VCSH SCT030 BKN045
     FM271800 09013G21KT P6SM VCSH BKN040 BKN250
     FM280000 08007KT P6SM SCT050 BKN100=

USA.gov is the U.S. government's official web portal to all federal, state and local government web resources and services.